Time;durP1;ratioP1;P1;durP2;ratioP2;P2;SDS_P1;SDS_P2;PMS_P1;PMS_P2;Temp;Humidity;BMP_temperature;BMP_pressure;BME280_temperature;BME280_humidity;BME280_pressure;Samples;Min_cycle;Max_cycle;Signal;HPM_P1;HPM_P2
2022/12/13 00:01:23;;;;;;;12.03;8.80;;;;;;;-10.19;100.00;95815.84;5033748;28;20466;-73
2022/12/13 00:03:58;;;;;;;12.80;8.30;;;;;;;-10.35;100.00;95821.50;5036288;28;20466;-73
2022/12/13 00:06:26;;;;;;;10.30;8.17;;;;;;;-10.60;100.00;95826.59;5052556;28;20437;-73
2022/12/13 00:08:53;;;;;;;15.43;8.70;;;;;;;-10.93;100.00;95810.69;5052496;28;20425;-73
2022/12/13 00:11:20;;;;;;;10.83;7.90;;;;;;;-11.04;100.00;95823.09;5032733;28;20877;-73
2022/12/13 00:13:47;;;;;;;14.73;9.20;;;;;;;-11.08;100.00;95824.50;5032326;28;20925;-72
2022/12/13 00:16:17;;;;;;;16.30;10.03;;;;;;;-11.14;100.00;95811.75;5033779;28;20430;-73
2022/12/13 00:18:48;;;;;;;12.73;8.90;;;;;;;-11.01;100.00;95801.47;5033332;28;20426;-73
2022/12/13 00:21:17;;;;;;;10.47;7.27;;;;;;;-10.87;100.00;95809.84;5031570;28;20524;-73
2022/12/13 00:23:46;;;;;;;11.57;7.67;;;;;;;-10.73;100.00;95801.91;5031991;28;20504;-72
2022/12/13 00:26:19;;;;;;;12.97;8.40;;;;;;;-10.58;100.00;95803.41;5032135;28;20438;-73
2022/12/13 00:28:48;;;;;;;9.60;6.80;;;;;;;-10.68;100.00;95800.50;5027837;28;20482;-73
2022/12/13 00:31:15;;;;;;;11.53;8.30;;;;;;;-11.15;100.00;95748.97;5011645;28;20577;-73
2022/12/13 00:34:02;;;;;;;11.97;7.37;;;;;;;-10.81;100.00;95803.94;5019548;28;20437;-71
2022/12/13 00:36:29;;;;;;;15.07;7.30;;;;;;;-10.77;100.00;95803.31;5037160;28;20494;-71
2022/12/13 00:39:02;;;;;;;12.83;8.30;;;;;;;-11.09;100.00;95807.59;5015707;28;20438;-71
2022/12/13 00:41:31;;;;;;;8.50;6.93;;;;;;;-11.08;100.00;95800.75;5030707;28;20454;-72
2022/12/13 00:43:59;;;;;;;11.77;7.23;;;;;;;-11.48;100.00;95747.38;5040148;28;20454;-72
2022/12/13 00:46:26;;;;;;;11.63;8.30;;;;;;;-11.07;100.00;95804.88;5020590;28;20890;-71
2022/12/13 00:48:56;;;;;;;9.13;6.50;;;;;;;-11.03;100.00;95795.81;5034104;28;20438;-71
2022/12/13 00:51:25;;;;;;;11.47;9.00;;;;;;;-10.99;100.00;95796.97;5050634;28;20497;-71
2022/12/13 00:53:51;;;;;;;11.33;8.63;;;;;;;-10.99;100.00;95803.84;5051888;28;21012;-71
2022/12/13 00:56:22;;;;;;;13.47;9.50;;;;;;;-10.98;100.00;95779.88;5045756;28;20801;-71
2022/12/13 00:58:49;;;;;;;16.20;10.47;;;;;;;-10.94;100.00;95788.72;5030050;28;20496;-71
2022/12/13 01:01:21;;;;;;;9.83;8.67;;;;;;;-10.83;100.00;95790.59;5030490;28;20468;-71
2022/12/13 01:03:48;;;;;;;15.63;9.80;;;;;;;-11.09;100.00;95764.22;5046896;28;20519;-71
2022/12/13 01:06:21;;;;;;;17.10;10.77;;;;;;;-10.80;100.00;95787.66;5030168;28;20433;-71
2022/12/13 01:08:48;;;;;;;12.43;8.80;;;;;;;-10.81;100.00;95776.66;5030289;28;20801;-71
2022/12/13 01:11:16;;;;;;;13.10;9.43;;;;;;;-10.97;100.00;95756.69;5031607;28;20576;-71
2022/12/13 01:13:42;;;;;;;15.47;10.43;;;;;;;-11.24;100.00;95781.56;5030272;28;20458;-71
2022/12/13 01:16:10;;;;;;;11.50;9.07;;;;;;;-11.39;100.00;95763.97;5030138;28;20584;-71
2022/12/13 01:18:40;;;;;;;12.07;9.50;;;;;;;-11.55;100.00;95723.66;5029998;28;20438;-71
2022/12/13 01:21:10;;;;;;;10.77;8.30;;;;;;;-11.01;100.00;95793.84;5039612;28;20468;-71
2022/12/13 01:23:40;;;;;;;17.60;9.83;;;;;;;-11.44;100.00;95779.13;5050227;28;20461;-71
2022/12/13 01:26:10;;;;;;;15.57;9.87;;;;;;;-11.34;100.00;95789.66;5050204;28;20525;-71
2022/12/13 01:28:37;;;;;;;10.70;7.93;;;;;;;-11.52;100.00;95753.84;5032226;28;20421;-71
2022/12/13 01:31:07;;;;;;;15.23;8.83;;;;;;;-11.57;100.00;95747.78;5049117;28;20560;-71
2022/12/13 01:33:34;;;;;;;12.20;8.20;;;;;;;-11.35;100.00;95733.75;5050105;28;20471;-71
2022/12/13 01:36:04;;;;;;;13.40;8.53;;;;;;;-11.09;100.00;95783.84;5024488;28;20441;-71
2022/12/13 01:38:31;;;;;;;8.67;7.77;;;;;;;-11.10;100.00;95775.41;5030162;28;20465;-71
2022/12/13 01:41:05;;;;;;;12.17;7.80;;;;;;;-11.00;100.00;95781.84;5043056;28;20455;-71
2022/12/13 01:43:43;;;;;;;12.97;6.83;;;;;;;-10.98;100.00;95780.66;5033871;28;20828;-71
2022/12/13 01:46:11;;;;;;;8.97;7.50;;;;;;;-11.40;100.00;95749.66;5035639;28;20444;-71
2022/12/13 01:48:50;;;;;;;15.57;8.57;;;;;;;-11.88;100.00;95756.13;5028713;28;20457;-71
2022/12/13 01:51:20;;;;;;;10.50;7.13;;;;;;;-11.58;100.00;95779.38;5028598;28;20460;-71
2022/12/13 01:53:50;;;;;;;13.13;8.93;;;;;;;-11.62;100.00;95781.50;5012203;28;20438;-71
2022/12/13 01:56:22;;;;;;;10.77;9.20;;;;;;;-11.48;100.00;95783.06;5029986;28;20472;-72
2022/12/13 01:58:51;;;;;;;10.20;7.63;;;;;;;-11.38;100.00;95780.84;5012345;28;20449;-72
2022/12/13 02:01:19;;;;;;;9.97;7.17;;;;;;;-11.14;100.00;95776.81;5028444;28;20553;-71
2022/12/13 02:03:45;;;;;;;14.27;7.93;;;;;;;-11.42;100.00;95738.13;5029954;28;20461;-71
2022/12/13 02:06:36;;;;;;;9.27;7.47;;;;;;;-11.54;100.00;95743.06;5048853;28;20471;-71
2022/12/13 02:09:05;;;;;;;14.73;7.70;;;;;;;-11.53;100.00;95780.31;5031295;28;20457;-71
2022/12/13 02:11:34;;;;;;;16.53;6.93;;;;;;;-11.73;100.00;95756.66;5049133;28;20486;-71
2022/12/13 02:14:01;;;;;;;14.77;9.20;;;;;;;-11.56;100.00;95770.53;5049586;28;20441;-71
2022/12/13 02:16:37;;;;;;;9.93;7.40;;;;;;;-11.43;100.00;95765.38;5022229;28;20434;-72
2022/12/13 02:19:12;;;;;;;12.40;7.97;;;;;;;-11.41;100.00;95773.59;5028529;28;20438;-71
2022/12/13 02:21:45;;;;;;;9.13;7.50;;;;;;;-11.35;100.00;95766.91;4985657;28;1117699;-71
2022/12/13 02:24:57;;;;;;;11.60;7.47;;;;;;;-11.34;100.00;95764.16;5012786;28;20221;-71
2022/12/13 02:28:00;;;;;;;11.60;7.40;;;;;;;-11.69;100.00;95757.81;5022977;28;20884;-71
2022/12/13 02:30:38;;;;;;;8.60;6.60;;;;;;;-11.84;100.00;95745.34;5029045;28;20465;-71
2022/12/13 02:33:29;;;;;;;10.30;7.73;;;;;;;-11.53;100.00;95766.78;5028959;28;20987;-71
2022/12/13 02:35:58;;;;;;;9.37;6.90;;;;;;;-11.56;100.00;95769.75;5030462;28;20422;-71
2022/12/13 02:38:25;;;;;;;8.03;6.27;;;;;;;-11.60;100.00;95766.81;5012657;28;20445;-71
2022/12/13 02:41:03;;;;;;;14.70;9.77;;;;;;;-11.67;100.00;95759.19;5028940;28;20554;-71
2022/12/13 02:43:39;;;;;;;10.03;8.20;;;;;;;-11.82;100.00;95747.69;5031748;28;20996;-71
2022/12/13 02:46:13;;;;;;;13.47;8.47;;;;;;;-12.14;100.00;95718.78;5034362;28;20437;-71
2022/12/13 02:48:41;;;;;;;11.53;8.33;;;;;;;-11.88;100.00;95726.38;5028773;28;20444;-71
2022/12/13 02:51:10;;;;;;;10.93;8.17;;;;;;;-11.95;100.00;95712.84;5028864;28;20557;-71
2022/12/13 02:53:40;;;;;;;12.60;8.53;;;;;;;-11.61;100.00;95749.97;5028834;28;20431;-71
2022/12/13 02:56:06;;;;;;;13.80;8.73;;;;;;;-11.71;100.00;95747.84;5028959;28;20433;-71
2022/12/13 02:58:36;;;;;;;13.23;7.80;;;;;;;-11.83;100.00;95736.72;5028910;28;20997;-71
2022/12/13 03:01:23;;;;;;;9.60;8.00;;;;;;;-11.73;100.00;95744.72;5042623;28;20812;-71
2022/12/13 03:04:15;;;;;;;15.10;8.77;;;;;;;-11.55;100.00;95758.56;5028758;28;20545;-71
2022/12/13 03:07:21;;;;;;;8.60;7.10;;;;;;;-11.57;100.00;95756.22;5032036;28;20851;-71
2022/12/13 03:09:58;;;;;;;10.00;6.93;;;;;;;-11.57;100.00;95756.22;5017295;28;20430;-71
2022/12/13 03:15:37;;;;;;;7.93;5.87;;;;;;;-11.57;100.00;95752.88;5029972;28;20954;-71
2022/12/13 03:18:16;;;;;;;11.23;7.37;;;;;;;-11.82;100.00;95715.34;5028656;28;20452;-71
2022/12/13 03:20:48;;;;;;;8.57;6.13;;;;;;;-11.62;100.00;95748.38;5028891;28;20507;-71
2022/12/13 03:23:19;;;;;;;10.30;7.87;;;;;;;-12.07;100.00;95709.34;5032247;28;20902;-71
2022/12/13 03:25:49;;;;;;;11.30;8.20;;;;;;;-12.18;100.00;95720.16;5032094;28;20816;-71
2022/12/13 03:28:17;;;;;;;12.57;7.83;;;;;;;-12.19;100.00;95749.94;5031938;28;20441;-71
2022/12/13 03:30:44;;;;;;;7.43;6.73;;;;;;;-12.35;100.00;95724.88;5039135;28;20516;-71
2022/12/13 03:33:10;;;;;;;15.70;8.60;;;;;;;-12.19;100.00;95716.03;5050946;28;20819;-72
2022/12/13 03:35:40;;;;;;;7.83;6.40;;;;;;;-12.27;100.00;95710.19;5032579;28;20758;-71
2022/12/13 03:38:16;;;;;;;11.30;8.00;;;;;;;-12.08;100.00;95735.81;5032138;28;20782;-71
2022/12/13 03:40:51;;;;;;;10.70;6.60;;;;;;;-12.18;100.00;95712.50;5042423;28;20575;-71
2022/12/13 03:43:18;;;;;;;8.13;7.00;;;;;;;-12.07;100.00;95727.97;5051681;28;20540;-71
2022/12/13 03:45:49;;;;;;;12.17;7.47;;;;;;;-12.00;100.00;95723.66;5039935;28;21005;-71
2022/12/13 03:48:15;;;;;;;10.70;7.23;;;;;;;-12.03;100.00;95731.66;5038584;28;20426;-71
2022/12/13 03:50:52;;;;;;;8.13;7.33;;;;;;;-11.96;100.00;95737.53;5052863;28;20508;-71
2022/12/13 03:53:20;;;;;;;10.30;6.33;;;;;;;-11.94;100.00;95722.84;5044220;28;20521;-71
2022/12/13 03:55:59;;;;;;;8.80;6.83;;;;;;;-11.89;100.00;95726.53;5032821;28;20433;-71
2022/12/13 03:58:26;;;;;;;10.97;8.20;;;;;;;-11.95;100.00;95723.03;5031830;28;20525;-71
2022/12/13 04:01:01;;;;;;;11.00;7.50;;;;;;;-12.42;100.00;95663.00;5046237;28;20446;-71
2022/12/13 04:03:28;;;;;;;13.50;8.17;;;;;;;-12.12;100.00;95729.56;5032884;28;20488;-71
2022/12/13 04:05:55;;;;;;;11.00;8.03;;;;;;;-12.65;100.00;95697.31;5019530;28;20514;-71
2022/12/13 04:08:21;;;;;;;15.27;8.97;;;;;;;-12.57;100.00;95709.81;5051477;28;20464;-71
2022/12/13 04:10:48;;;;;;;9.50;7.80;;;;;;;-12.48;100.00;95707.84;5050972;28;20591;-71
2022/12/13 04:13:33;;;;;;;12.90;7.10;;;;;;;-12.61;100.00;95641.69;5034754;28;20480;-71
2022/12/13 04:16:01;;;;;;;9.00;7.40;;;;;;;-11.84;100.00;95737.72;5051200;28;20536;-71
2022/12/13 04:18:28;;;;;;;10.07;7.40;;;;;;;-12.07;100.00;95734.81;5051225;28;21000;-71
2022/12/13 04:20:56;;;;;;;9.20;6.47;;;;;;;-12.24;100.00;95704.69;5052394;28;20563;-71
2022/12/13 04:23:23;;;;;;;10.40;7.03;;;;;;;-12.13;100.00;95721.13;5034389;28;20437;-71
2022/12/13 04:25:50;;;;;;;8.93;5.20;;;;;;;-12.11;100.00;95731.91;5051009;28;20472;-71
2022/12/13 04:28:17;;;;;;;10.53;7.03;;;;;;;-12.47;100.00;95693.38;5052194;28;20730;-71
2022/12/13 04:30:52;;;;;;;11.67;6.50;;;;;;;-12.27;100.00;95727.22;5035090;28;20430;-71
2022/12/13 04:33:23;;;;;;;14.03;8.63;;;;;;;-12.51;100.00;95695.53;5051805;28;20921;-71
2022/12/13 04:35:50;;;;;;;12.33;7.80;;;;;;;-12.54;100.00;95689.06;5037821;28;20498;-71
2022/12/13 04:38:17;;;;;;;9.53;7.60;;;;;;;-12.27;100.00;95722.13;5028540;28;20432;-71
2022/12/13 04:40:44;;;;;;;11.37;7.17;;;;;;;-12.60;100.00;95681.44;5031987;28;20521;-71
2022/12/13 04:43:11;;;;;;;12.70;8.33;;;;;;;-12.36;100.00;95721.56;5044361;28;20442;-71
2022/12/13 04:45:38;;;;;;;7.20;5.90;;;;;;;-12.51;100.00;95720.19;5040587;28;20497;-71
2022/12/13 04:48:05;;;;;;;12.47;8.20;;;;;;;-12.69;100.00;95696.13;5044952;28;20533;-71
2022/12/13 04:50:32;;;;;;;10.10;6.50;;;;;;;-12.84;100.00;95685.34;5032608;28;20789;-71
2022/12/13 04:52:58;;;;;;;7.70;6.60;;;;;;;-12.70;100.00;95714.13;5032050;28;20517;-71
2022/12/13 04:55:25;;;;;;;12.77;8.70;;;;;;;-12.64;100.00;95696.31;5031883;28;20996;-71
2022/12/13 04:57:52;;;;;;;11.17;7.60;;;;;;;-12.54;100.00;95708.66;5031703;28;20565;-71
2022/12/13 05:00:20;;;;;;;7.77;6.60;;;;;;;-12.65;100.00;95674.41;5030538;28;20442;-71
2022/12/13 05:02:47;;;;;;;9.27;6.53;;;;;;;-12.41;100.00;95707.88;5030100;28;21021;-71
2022/12/13 05:05:14;;;;;;;6.43;5.83;;;;;;;-12.39;100.00;95696.50;5030521;28;20789;-71
2022/12/13 05:07:41;;;;;;;10.67;6.37;;;;;;;-12.73;100.00;95684.78;5030220;28;20504;-71
2022/12/13 05:10:10;;;;;;;13.80;7.03;;;;;;;-12.73;100.00;95699.25;5030108;28;20934;-71
2022/12/13 05:12:36;;;;;;;10.20;7.30;;;;;;;-12.63;100.00;95697.09;5031155;28;20553;-71
2022/12/13 05:15:04;;;;;;;8.00;6.53;;;;;;;-12.65;100.00;95687.13;5016416;28;20500;-71
2022/12/13 05:17:31;;;;;;;9.73;6.30;;;;;;;-12.59;100.00;95691.41;5030088;28;20541;-71
2022/12/13 05:19:57;;;;;;;8.90;6.77;;;;;;;-12.63;100.00;95692.81;5031569;28;20434;-71
2022/12/13 05:22:24;;;;;;;12.80;9.33;;;;;;;-12.73;100.00;95689.06;5050695;28;20460;-71
2022/12/13 05:24:50;;;;;;;11.50;7.80;;;;;;;-12.82;100.00;95663.03;5049735;28;20465;-71
2022/12/13 05:27:18;;;;;;;10.00;7.57;;;;;;;-12.45;100.00;95712.53;5049718;28;20949;-71
2022/12/13 05:29:55;;;;;;;11.90;6.47;;;;;;;-12.44;100.00;95708.25;5034402;28;20441;-71
2022/12/13 05:32:37;;;;;;;7.30;5.60;;;;;;;-12.52;100.00;95691.44;5049742;28;20945;-71
2022/12/13 05:35:19;;;;;;;9.60;7.97;;;;;;;-12.70;100.00;95689.47;5045515;28;20466;-71
2022/12/13 05:37:52;;;;;;;9.37;7.07;;;;;;;-12.84;100.00;95700.63;5029703;28;20826;-71
2022/12/13 05:40:29;;;;;;;14.73;8.80;;;;;;;-12.73;100.00;95697.50;5029869;28;20423;-71
2022/12/13 05:42:56;;;;;;;7.50;6.33;;;;;;;-12.63;100.00;95704.75;5013195;28;20840;-71
2022/12/13 05:45:31;;;;;;;11.27;6.63;;;;;;;-12.67;100.00;95694.19;5039404;28;20861;-71
2022/12/13 05:47:58;;;;;;;14.20;9.20;;;;;;;-12.70;100.00;95674.19;5029687;28;20533;-71
2022/12/13 05:50:26;;;;;;;15.07;9.67;;;;;;;-12.62;100.00;95694.38;5013685;28;20446;-71
2022/12/13 05:52:52;;;;;;;10.90;7.10;;;;;;;-12.55;100.00;95707.09;5026583;28;20454;-71
2022/12/13 05:55:19;;;;;;;9.60;7.57;;;;;;;-12.41;100.00;95707.88;5029507;28;20426;-71
2022/12/13 05:57:46;;;;;;;16.67;11.17;;;;;;;-12.44;100.00;95700.59;5031188;28;21002;-72
2022/12/13 06:00:17;;;;;;;15.33;9.60;;;;;;;-12.65;100.00;95664.22;5029839;28;20488;-72
2022/12/13 06:02:57;;;;;;;16.20;10.70;;;;;;;-12.38;100.00;95703.16;5014769;28;20466;-72
2022/12/13 06:05:27;;;;;;;17.87;11.33;;;;;;;-12.58;100.00;95710.78;5030834;28;20461;-72
2022/12/13 06:07:54;;;;;;;20.20;14.20;;;;;;;-12.58;100.00;95705.69;5029659;28;21024;-72
2022/12/13 06:10:23;;;;;;;14.23;10.30;;;;;;;-12.64;100.00;95705.72;5031070;28;20431;-71
2022/12/13 06:13:00;;;;;;;16.40;11.90;;;;;;;-12.24;100.00;95693.72;5037630;28;20432;-71
2022/12/13 06:15:46;;;;;;;15.70;10.73;;;;;;;-12.41;100.00;95680.66;5049804;28;20532;-71
2022/12/13 06:18:12;;;;;;;18.23;11.80;;;;;;;-11.48;100.00;95710.88;5038498;28;20537;-71
2022/12/13 06:20:39;;;;;;;16.77;9.50;;;;;;;-11.98;100.00;95662.31;5033632;28;20536;-71
2022/12/13 06:23:06;;;;;;;31.03;12.53;;;;;;;-11.56;100.00;95706.00;5050567;28;20987;-71
2022/12/13 06:25:32;;;;;;;12.77;8.00;;;;;;;-11.62;100.00;95699.94;5044636;28;20462;-71
2022/12/13 06:27:59;;;;;;;17.83;9.20;;;;;;;-11.97;100.00;95697.78;5013151;28;20422;-71
2022/12/13 06:30:27;;;;;;;12.37;8.97;;;;;;;-12.34;100.00;95671.22;5012995;28;20449;-71
2022/12/13 06:32:55;;;;;;;10.97;7.90;;;;;;;-12.55;100.00;95692.59;5012819;28;20541;-71
2022/12/13 06:35:22;;;;;;;13.37;7.93;;;;;;;-12.71;100.00;95697.28;5025855;28;20453;-72
2022/12/13 06:37:56;;;;;;;9.77;7.33;;;;;;;-12.82;100.00;95693.56;5022616;28;20506;-72
2022/12/13 06:40:32;;;;;;;11.77;8.77;;;;;;;-13.27;100.00;95660.34;5013744;28;20434;-72
2022/12/13 06:42:59;;;;;;;11.20;7.77;;;;;;;-13.04;100.00;95671.88;5029375;28;20785;-72
2022/12/13 06:45:26;;;;;;;14.80;9.10;;;;;;;-12.83;100.00;95697.09;5022296;28;20496;-72
2022/12/13 06:47:52;;;;;;;17.27;8.37;;;;;;;-12.88;100.00;95679.09;5029051;28;20437;-72
2022/12/13 06:50:19;;;;;;;22.93;14.33;;;;;;;-12.91;100.00;95671.88;5039780;28;20479;-72
2022/12/13 06:52:46;;;;;;;23.77;14.90;;;;;;;-12.70;100.00;95709.03;5016876;28;20465;-72
2022/12/13 06:55:13;;;;;;;32.63;18.60;;;;;;;-12.70;100.00;95699.63;5030799;28;20787;-72
2022/12/13 06:57:50;;;;;;;34.50;20.93;;;;;;;-12.80;100.00;95689.09;5032681;28;20456;-72
2022/12/13 07:00:17;;;;;;;42.67;22.73;;;;;;;-13.03;100.00;95678.53;5016398;28;20434;-72
2022/12/13 07:02:53;;;;;;;37.83;19.33;;;;;;;-13.19;100.00;95670.31;5032589;28;20838;-72
2022/12/13 07:05:21;;;;;;;23.20;14.93;;;;;;;-12.99;100.00;95703.34;5045347;28;20827;-73
2022/12/13 07:07:48;;;;;;;15.70;10.17;;;;;;;-13.13;100.00;95710.19;5039792;28;20457;-72
2022/12/13 07:10:15;;;;;;;10.60;8.20;;;;;;;-13.02;100.00;95691.03;5052637;28;20819;-72
2022/12/13 07:12:48;;;;;;;19.53;12.30;;;;;;;-12.85;100.00;95707.47;5014248;28;20555;-72
2022/12/13 07:15:15;;;;;;;15.97;11.90;;;;;;;-13.13;100.00;95671.28;5041514;28;20782;-72
2022/12/13 07:17:41;;;;;;;16.13;12.77;;;;;;;-13.03;100.00;95686.94;5036123;28;20434;-72
2022/12/13 07:20:08;;;;;;;17.57;11.17;;;;;;;-12.95;100.00;95673.22;5052203;28;21018;-72
2022/12/13 07:22:36;;;;;;;14.27;11.40;;;;;;;-12.80;100.00;95694.19;5053245;28;20467;-73
2022/12/13 07:25:13;;;;;;;15.10;11.50;;;;;;;-12.80;100.00;95696.72;5055476;28;20473;-72
2022/12/13 07:27:56;;;;;;;20.00;10.87;;;;;;;-12.97;100.00;95695.53;5053000;28;20949;-72
2022/12/13 07:30:38;;;;;;;13.57;10.43;;;;;;;-12.92;100.00;95700.84;5057545;28;20429;-71
2022/12/13 07:33:07;;;;;;;15.00;10.70;;;;;;;-12.98;100.00;95673.63;5054666;28;20479;-71
2022/12/13 07:35:34;;;;;;;11.73;9.17;;;;;;;-12.84;100.00;95680.28;5045560;28;20431;-71
2022/12/13 07:38:08;;;;;;;17.80;13.00;;;;;;;-12.67;100.00;95698.50;5028144;28;20472;-71
2022/12/13 07:40:37;;;;;;;17.63;12.30;;;;;;;-12.65;100.00;95704.94;5042899;28;20557;-72
2022/12/13 07:43:04;;;;;;;18.03;10.63;;;;;;;-12.55;100.00;95707.88;5054063;28;20444;-71
2022/12/13 07:45:31;;;;;;;24.37;12.93;;;;;;;-12.63;100.00;95687.72;5045864;28;20549;-73
2022/12/13 07:48:02;;;;;;;19.63;11.57;;;;;;;-12.83;100.00;95664.81;5016045;28;20817;-72
2022/12/13 07:50:28;;;;;;;18.40;12.47;;;;;;;-12.50;100.00;95709.03;5032265;28;20441;-72
2022/12/13 07:53:07;;;;;;;29.83;14.90;;;;;;;-12.37;100.00;95711.56;5034555;28;20425;-71
2022/12/13 07:55:35;;;;;;;17.43;13.60;;;;;;;-12.50;100.00;95686.13;5032145;28;20796;-72
2022/12/13 07:58:13;;;;;;;23.17;15.63;;;;;;;-12.26;100.00;95706.66;5034246;28;20519;-72
2022/12/13 08:00:43;;;;;;;23.97;13.80;;;;;;;-12.14;100.00;95716.25;5053264;28;20436;-71
2022/12/13 08:03:13;;;;;;;18.33;13.83;;;;;;;-12.06;100.00;95724.44;5029642;28;20517;-72
2022/12/13 08:06:02;;;;;;;20.17;15.27;;;;;;;-11.97;100.00;95717.38;5033483;28;20493;-72
2022/12/13 08:08:29;;;;;;;24.97;16.57;;;;;;;-11.91;100.00;95726.75;5033532;28;20457;-71
2022/12/13 08:11:06;;;;;;;41.67;16.70;;;;;;;-11.84;100.00;95722.41;5032192;28;20478;-72
2022/12/13 08:13:33;;;;;;;30.43;27.13;;;;;;;-11.99;100.00;95669.16;5031966;28;20950;-72
2022/12/13 08:16:02;;;;;;;48.40;34.60;;;;;;;-11.59;100.00;95699.56;5031701;28;20934;-73
2022/12/13 08:18:29;;;;;;;40.57;30.03;;;;;;;-11.79;100.00;95702.19;5032153;28;20484;-72
2022/12/13 08:21:01;;;;;;;39.77;31.40;;;;;;;-11.67;100.00;95722.72;5050572;28;20471;-72
2022/12/13 08:23:29;;;;;;;38.43;25.90;;;;;;;-11.62;100.00;95725.44;5052763;28;20429;-71
2022/12/13 08:25:57;;;;;;;38.50;24.93;;;;;;;-11.68;100.00;95723.69;5052107;28;20472;-72
2022/12/13 08:28:25;;;;;;;42.93;24.50;;;;;;;-11.84;100.00;95681.66;5053317;28;20428;-71
2022/12/13 08:30:55;;;;;;;35.10;23.40;;;;;;;-11.74;100.00;95693.94;5035244;28;20457;-72
2022/12/13 08:33:21;;;;;;;41.97;27.57;;;;;;;-11.70;100.00;95690.00;5051802;28;20441;-73
2022/12/13 08:35:48;;;;;;;42.07;28.17;;;;;;;-11.61;100.00;95701.53;5041645;28;20419;-73
2022/12/13 08:38:15;;;;;;;27.17;19.33;;;;;;;-11.64;100.00;95702.69;5027960;28;20525;-72
2022/12/13 08:40:49;;;;;;;24.97;17.50;;;;;;;-11.61;100.00;95724.47;5032333;28;20442;-72
2022/12/13 08:43:17;;;;;;;26.13;15.93;;;;;;;-11.44;100.00;95728.13;5032254;28;20462;-72
2022/12/13 08:45:50;;;;;;;30.23;14.60;;;;;;;-11.05;100.00;95709.28;5040575;28;20465;-72
2022/12/13 08:48:17;;;;;;;25.53;19.07;;;;;;;-11.12;100.00;95694.97;5031694;28;20432;-73
2022/12/13 08:50:44;;;;;;;25.63;17.50;;;;;;;-10.81;100.00;95729.94;5032074;28;20445;-72
2022/12/13 08:53:10;;;;;;;26.40;15.17;;;;;;;-10.75;100.00;95716.31;5031208;28;20434;-75
2022/12/13 08:56:06;;;;;;;20.27;15.27;;;;;;;-10.81;100.00;95715.41;5034202;28;20454;-73
2022/12/13 08:58:33;;;;;;;19.47;13.53;;;;;;;-10.78;100.00;95709.09;5014806;28;20437;-73
2022/12/13 09:00:59;;;;;;;19.53;13.17;;;;;;;-10.54;100.00;95730.50;5031868;28;20484;-73
2022/12/13 09:03:26;;;;;;;18.57;14.10;;;;;;;-10.77;100.00;95705.53;5031570;28;20437;-74
2022/12/13 09:05:53;;;;;;;22.13;11.97;;;;;;;-10.50;100.00;95732.44;5033805;28;20472;-73
2022/12/13 09:08:20;;;;;;;17.77;12.17;;;;;;;-10.27;100.00;95742.06;5051126;28;20447;-74
2022/12/13 09:10:59;;;;;;;17.70;10.77;;;;;;;-10.07;100.00;95748.72;5050801;28;20531;-74
2022/12/13 09:13:28;;;;;;;14.23;9.87;;;;;;;-10.13;100.00;95740.16;5052981;28;20455;-73
2022/12/13 09:16:05;;;;;;;16.97;9.90;;;;;;;-10.02;100.00;95749.66;5054839;28;20490;-73
2022/12/13 09:18:40;;;;;;;13.67;10.23;;;;;;;-9.95;100.00;95737.59;5053271;28;20428;-73
2022/12/13 09:21:10;;;;;;;24.10;14.13;;;;;;;-9.85;100.00;95749.91;5054385;28;20522;-74
2022/12/13 09:23:40;;;;;;;19.33;12.63;;;;;;;-9.97;100.00;95742.16;5051015;28;20425;-74
2022/12/13 09:26:14;;;;;;;14.43;10.97;;;;;;;-9.80;100.00;95739.03;5059828;28;20463;-74
2022/12/13 09:28:41;;;;;;;14.53;10.33;;;;;;;-9.88;100.00;95727.31;5056866;28;20418;-73
2022/12/13 09:31:14;;;;;;;15.80;10.00;;;;;;;-9.66;100.00;95738.66;5056718;28;20455;-73
2022/12/13 09:33:42;;;;;;;14.67;9.37;;;;;;;-9.46;100.00;95730.78;5041312;28;20453;-73
2022/12/13 09:36:15;;;;;;;15.60;10.50;;;;;;;-9.48;100.00;95724.31;5015576;28;20435;-74
2022/12/13 09:38:42;;;;;;;13.40;10.07;;;;;;;-9.57;100.00;95727.16;5032430;28;20437;-71
2022/12/13 09:41:20;;;;;;;14.20;8.43;;;;;;;-9.63;100.00;95729.78;5035545;28;20458;-70
2022/12/13 09:44:36;;;;;;;15.13;9.87;;;;;;;-9.65;100.00;95726.66;5041716;28;20429;-70
2022/12/13 09:47:21;;;;;;;10.57;8.10;;;;;;;-9.72;100.00;95724.19;4984819;28;20552;-71
2022/12/13 09:49:51;;;;;;;18.27;11.67;;;;;;;-9.70;100.00;95713.75;5032865;28;20438;-71
2022/12/13 09:52:22;;;;;;;16.03;9.70;;;;;;;-9.68;100.00;95698.97;5035467;28;20462;-73
2022/12/13 09:54:54;;;;;;;13.87;10.07;;;;;;;-9.58;100.00;95694.91;5032619;28;20553;-71
2022/12/13 09:57:27;;;;;;;18.27;9.73;;;;;;;-9.44;100.00;95705.75;5034079;28;20427;-72
2022/12/13 10:00:03;;;;;;;16.63;11.33;;;;;;;-9.43;100.00;95697.09;5033556;28;20425;-72
2022/12/13 10:02:43;;;;;;;12.60;9.73;;;;;;;-9.38;100.00;95668.28;5036612;28;20434;-72
2022/12/13 10:05:37;;;;;;;14.63;10.17;;;;;;;-9.06;100.00;95695.22;5033636;28;20473;-72
2022/12/13 10:08:13;;;;;;;12.63;8.67;;;;;;;-8.96;100.00;95692.13;5032319;28;20421;-73
2022/12/13 10:10:42;;;;;;;14.30;10.60;;;;;;;-8.79;100.00;95692.28;5030860;28;20456;-72
2022/12/13 10:13:09;;;;;;;13.70;10.30;;;;;;;-8.61;100.00;95691.41;5031108;28;20434;-72
2022/12/13 10:15:40;;;;;;;18.63;10.73;;;;;;;-8.57;100.00;95688.16;5014141;28;20465;-72
2022/12/13 10:18:11;;;;;;;14.17;10.67;;;;;;;-8.45;100.00;95681.28;5029982;28;20455;-73
2022/12/13 10:20:40;;;;;;;19.10;10.80;;;;;;;-8.51;100.00;95664.25;5029497;28;20988;-73
2022/12/13 10:23:06;;;;;;;13.43;8.63;;;;;;;-8.27;100.00;95682.94;5031091;28;20841;-73
2022/12/13 10:25:54;;;;;;;15.60;10.87;;;;;;;-8.35;100.00;95647.41;5030855;28;20463;-73
2022/12/13 10:28:32;;;;;;;16.73;12.07;;;;;;;-8.01;100.00;95678.31;5014431;28;20441;-73
2022/12/13 10:31:00;;;;;;;17.47;9.30;;;;;;;-7.97;100.00;95658.94;5031627;28;20446;-73
2022/12/13 10:33:30;;;;;;;18.90;12.77;;;;;;;-7.73;100.00;95675.06;5034950;28;20525;-72
2022/12/13 10:36:31;;;;;;;16.80;12.50;;;;;;;-7.58;100.00;95665.09;5034835;28;20798;-72
2022/12/13 10:38:58;;;;;;;13.43;10.90;;;;;;;-7.49;100.00;95666.25;5019317;28;21002;-73
2022/12/13 10:41:36;;;;;;;19.70;12.93;;;;;;;-7.37;100.00;95656.72;5045428;28;20460;-73
2022/12/13 10:44:18;;;;;;;12.57;10.80;;;;;;;-7.22;100.00;95657.00;5054672;28;20520;-73
2022/12/13 10:46:59;;;;;;;14.70;10.40;;;;;;;-7.23;100.00;95637.47;5033604;28;20462;-73
2022/12/13 10:49:38;;;;;;;9.40;7.03;;;;;;;-6.92;100.00;95655.97;5033114;28;20450;-74
2022/12/13 10:52:18;;;;;;;11.27;7.57;;;;;;;-7.03;100.00;95623.44;5032749;28;20543;-74
2022/12/13 10:55:01;;;;;;;9.77;6.27;;;;;;;-6.54;100.00;95665.56;5033399;28;20781;-74
2022/12/13 10:57:28;;;;;;;7.63;6.40;;;;;;;-6.43;100.00;95656.97;5034224;28;20418;-74
2022/12/13 10:59:57;;;;;;;6.87;6.03;;;;;;;-6.29;100.00;95632.47;5032971;28;21001;-73
2022/12/13 11:02:38;;;;;;;7.07;6.37;;;;;;;-6.05;100.00;95669.06;5032671;28;20939;-74
2022/12/13 11:05:22;;;;;;;7.27;5.50;;;;;;;-6.00;100.00;95666.56;5034218;28;20543;-74
2022/12/13 11:07:49;;;;;;;6.60;5.60;;;;;;;-6.10;100.00;95642.50;5032624;28;20569;-74
2022/12/13 11:10:20;;;;;;;7.10;5.00;;;;;;;-5.88;100.00;95670.78;5032623;28;20434;-74
2022/12/13 11:12:59;;;;;;;6.90;5.47;;;;;;;-5.84;100.00;95666.72;5032518;28;20482;-74
2022/12/13 11:15:28;;;;;;;4.80;4.33;;;;;;;-6.00;100.00;95645.22;5032553;28;20448;-74
2022/12/13 11:17:58;;;;;;;9.90;5.67;;;;;;;-5.83;100.00;95663.13;5032628;28;20581;-74
2022/12/13 11:20:37;;;;;;;4.73;4.20;;;;;;;-5.88;100.00;95632.19;5032440;28;20457;-73
2022/12/13 11:23:14;;;;;;;9.40;5.37;;;;;;;-5.69;100.00;95648.88;5034040;28;20426;-73
2022/12/13 11:25:43;;;;;;;8.53;5.87;;;;;;;-5.83;100.00;95633.03;5032537;28;20497;-74
2022/12/13 11:28:29;;;;;;;6.30;5.40;;;;;;;-5.60;100.00;95659.56;5032494;28;20493;-74
2022/12/13 11:31:18;;;;;;;6.10;5.17;;;;;;;-5.55;100.00;95654.44;5015890;28;21039;-74
2022/12/13 11:34:12;;;;;;;5.73;4.90;;;;;;;-5.61;100.00;95630.44;5032823;28;20466;-74